Time;durP1;ratioP1;P1;durP2;ratioP2;P2;SDS_P1;SDS_P2;PMS_P1;PMS_P2;Temp;Humidity;BMP_temperature;BMP_pressure;BME280_temperature;BME280_humidity;BME280_pressure;Samples;Min_cycle;Max_cycle;Signal;HPM_P1;HPM_P2
2022/04/10 00:00:45;;;;;;;8.15;5.38;;;;;;;;;;5092237;28;20028;-61
2022/04/10 00:03:12;;;;;;;12.15;4.80;;;;;;;;;;5092645;28;20208;-61
2022/04/10 00:05:38;;;;;;;10.07;4.63;;;;;;;;;;5092501;28;20024;-61
2022/04/10 00:08:04;;;;;;;15.05;4.93;;;;;;;;;;5092530;28;20099;-61
2022/04/10 00:10:30;;;;;;;7.55;4.70;;;;;;;;;;5091950;28;20030;-61
2022/04/10 00:12:57;;;;;;;12.77;5.07;;;;;;;;;;5089052;28;20039;-61
2022/04/10 00:15:23;;;;;;;7.07;4.63;;;;;;;;;;5072172;28;20067;-61
2022/04/10 00:17:49;;;;;;;9.10;4.47;;;;;;;;;;5072180;28;20047;-61
2022/04/10 00:20:15;;;;;;;9.48;5.93;;;;;;;;;;5072250;28;20039;-60
2022/04/10 00:22:42;;;;;;;9.10;4.28;;;;;;;;;;5072055;28;20507;-60
2022/04/10 00:25:09;;;;;;;8.13;4.50;;;;;;;;;;5071754;28;20131;-60
2022/04/10 00:27:35;;;;;;;9.13;5.47;;;;;;;;;;5071835;28;20064;-61
2022/04/10 00:30:01;;;;;;;11.55;5.95;;;;;;;;;;5070952;28;20379;-61
2022/04/10 00:32:28;;;;;;;14.25;6.43;;;;;;;;;;5071816;28;20070;-60
2022/04/10 00:34:54;;;;;;;11.02;5.95;;;;;;;;;;5090525;28;20120;-61
2022/04/10 00:37:20;;;;;;;12.07;6.88;;;;;;;;;;5092208;28;20035;-60
2022/04/10 00:39:46;;;;;;;10.77;6.38;;;;;;;;;;5091910;28;20033;-61
2022/04/10 00:42:13;;;;;;;10.70;6.72;;;;;;;;;;5090558;28;20032;-61
2022/04/10 00:44:39;;;;;;;14.10;6.72;;;;;;;;;;5091899;28;20032;-61
2022/04/10 00:47:06;;;;;;;11.85;6.75;;;;;;;;;;5094881;28;20031;-60
2022/04/10 00:49:32;;;;;;;11.55;7.15;;;;;;;;;;5094740;28;20404;-60
2022/04/10 00:52:00;;;;;;;11.48;6.55;;;;;;;;;;5096145;28;20095;-61
2022/04/10 00:54:26;;;;;;;12.88;7.15;;;;;;;;;;5094510;28;20061;-60
2022/04/10 00:56:55;;;;;;;9.60;6.43;;;;;;;;;;5094627;28;20047;-60
2022/04/10 00:59:21;;;;;;;13.93;6.57;;;;;;;;;;5094750;28;20492;-60
2022/04/10 01:01:48;;;;;;;10.48;6.93;;;;;;;;;;5095773;28;20103;-60
2022/04/10 01:04:14;;;;;;;13.02;6.22;;;;;;;;;;5095871;28;20408;-61
2022/04/10 01:06:41;;;;;;;16.17;6.97;;;;;;;;;;5095731;28;20107;-61
2022/04/10 01:09:08;;;;;;;9.40;6.38;;;;;;;;;;5093594;28;20101;-60
2022/04/10 01:11:34;;;;;;;10.30;6.30;;;;;;;;;;5095511;28;20428;-60
2022/04/10 01:14:01;;;;;;;10.82;6.20;;;;;;;;;;5091070;28;20031;-60
2022/04/10 01:16:30;;;;;;;10.63;6.47;;;;;;;;;;5074114;28;20033;-60
2022/04/10 01:18:57;;;;;;;13.00;6.50;;;;;;;;;;5074036;28;20409;-60
2022/04/10 01:21:27;;;;;;;12.23;6.68;;;;;;;;;;5073621;28;20028;-60
2022/04/10 01:23:57;;;;;;;16.00;8.75;;;;;;;;;;5073886;28;20101;-61
2022/04/10 01:26:25;;;;;;;14.60;6.78;;;;;;;;;;5073985;28;20112;-61
2022/04/10 01:29:12;;;;;;;14.43;6.63;;;;;;;;;;5089027;28;20040;-60
2022/04/10 01:31:40;;;;;;;11.00;6.63;;;;;;;;;;5095464;28;20061;-61
2022/04/10 01:34:07;;;;;;;14.52;7.03;;;;;;;;;;5091834;28;20520;-61
2022/04/10 01:36:35;;;;;;;14.38;7.10;;;;;;;;;;5093586;28;20036;-61
2022/04/10 01:39:03;;;;;;;14.52;6.82;;;;;;;;;;5094126;28;20055;-60
2022/04/10 01:41:30;;;;;;;10.23;6.22;;;;;;;;;;5090919;28;20036;-60
2022/04/10 01:43:59;;;;;;;15.13;6.50;;;;;;;;;;5077107;28;20442;-60
2022/04/10 01:46:30;;;;;;;10.85;6.85;;;;;;;;;;5079974;28;20028;-61
2022/04/10 01:48:57;;;;;;;13.88;6.70;;;;;;;;;;5078717;28;20076;-60
2022/04/10 01:51:23;;;;;;;9.68;6.38;;;;;;;;;;5090543;28;20023;-60
2022/04/10 01:53:51;;;;;;;11.48;6.13;;;;;;;;;;5076884;28;20043;-60
2022/04/10 01:56:17;;;;;;;14.43;6.25;;;;;;;;;;5072909;28;20053;-60
2022/04/10 01:58:44;;;;;;;13.35;6.05;;;;;;;;;;5087218;28;20054;-60
2022/04/10 02:01:13;;;;;;;12.13;6.28;;;;;;;;;;5093447;28;20119;-60
2022/04/10 02:03:40;;;;;;;13.82;6.50;;;;;;;;;;5093376;28;20035;-61
2022/04/10 02:06:08;;;;;;;9.60;5.43;;;;;;;;;;5093270;28;20393;-60
2022/04/10 02:08:38;;;;;;;12.30;6.38;;;;;;;;;;5093317;28;20024;-60
2022/04/10 02:11:12;;;;;;;9.38;5.47;;;;;;;;;;5089991;28;20036;-60
2022/04/10 02:13:39;;;;;;;14.90;6.53;;;;;;;;;;5072905;28;20078;-60
2022/04/10 02:16:11;;;;;;;11.25;6.22;;;;;;;;;;5084511;28;20062;-60
2022/04/10 02:18:38;;;;;;;9.23;5.85;;;;;;;;;;5093039;28;20454;-60
2022/04/10 02:21:04;;;;;;;12.75;6.15;;;;;;;;;;5091551;28;20043;-60
2022/04/10 02:23:31;;;;;;;12.50;5.95;;;;;;;;;;5077381;28;20050;-60
2022/04/10 02:25:57;;;;;;;13.15;5.85;;;;;;;;;;5087150;28;20099;-60
2022/04/10 02:28:23;;;;;;;8.82;6.18;;;;;;;;;;5094430;28;20103;-60
2022/04/10 02:30:49;;;;;;;9.27;5.35;;;;;;;;;;5092688;28;20031;-60
2022/04/10 02:33:16;;;;;;;10.35;5.68;;;;;;;;;;5092460;28;20020;-61
2022/04/10 02:35:43;;;;;;;9.75;5.35;;;;;;;;;;5093685;28;20028;-60
2022/04/10 02:38:09;;;;;;;12.88;6.03;;;;;;;;;;5092894;28;20396;-61
2022/04/10 02:40:35;;;;;;;8.50;5.93;;;;;;;;;;5087765;28;20021;-60
2022/04/10 02:43:02;;;;;;;8.20;5.68;;;;;;;;;;5072454;28;20560;-60
2022/04/10 02:45:29;;;;;;;9.15;5.78;;;;;;;;;;5073757;28;20374;-61
2022/04/10 02:47:57;;;;;;;12.57;6.45;;;;;;;;;;5072423;28;20036;-60
2022/04/10 02:50:24;;;;;;;9.23;5.93;;;;;;;;;;5076127;28;20066;-61
2022/04/10 02:52:52;;;;;;;13.07;5.97;;;;;;;;;;5086961;28;20027;-60
2022/04/10 02:55:18;;;;;;;11.50;6.03;;;;;;;;;;5093801;28;20107;-60
2022/04/10 02:57:45;;;;;;;8.93;5.78;;;;;;;;;;5092336;28;20554;-60
2022/04/10 03:00:11;;;;;;;9.63;6.20;;;;;;;;;;5092429;28;20035;-60
2022/04/10 03:02:40;;;;;;;13.45;6.25;;;;;;;;;;5092263;28;20024;-60
2022/04/10 03:05:08;;;;;;;10.40;5.78;;;;;;;;;;5087753;28;20517;-60
2022/04/10 03:07:34;;;;;;;11.18;6.10;;;;;;;;;;5078358;28;20094;-60
2022/04/10 03:10:00;;;;;;;10.27;5.30;;;;;;;;;;5093453;28;20516;-61
2022/04/10 03:12:26;;;;;;;12.00;6.03;;;;;;;;;;5093506;28;20103;-61
2022/04/10 03:14:52;;;;;;;9.88;6.05;;;;;;;;;;5091867;28;20032;-60
2022/04/10 03:17:19;;;;;;;8.63;5.30;;;;;;;;;;5092059;28;20034;-60
2022/04/10 03:19:45;;;;;;;10.05;5.85;;;;;;;;;;5089679;28;20477;-60
2022/04/10 03:22:11;;;;;;;10.20;5.32;;;;;;;;;;5073737;28;20335;-60
2022/04/10 03:24:37;;;;;;;9.20;5.25;;;;;;;;;;5071367;28;20410;-60
2022/04/10 03:27:05;;;;;;;6.78;5.07;;;;;;;;;;5071809;28;20055;-60
2022/04/10 03:29:31;;;;;;;12.95;5.72;;;;;;;;;;5071984;28;20405;-60
2022/04/10 03:31:58;;;;;;;11.02;5.13;;;;;;;;;;5071193;28;20115;-60
2022/04/10 03:34:24;;;;;;;13.82;5.55;;;;;;;;;;5083406;28;20056;-60
2022/04/10 03:36:51;;;;;;;10.88;5.72;;;;;;;;;;5071392;28;20024;-60
2022/04/10 03:39:17;;;;;;;15.30;5.82;;;;;;;;;;5073008;28;20111;-60
2022/04/10 03:41:43;;;;;;;11.02;5.13;;;;;;;;;;5071421;28;20455;-60
2022/04/10 03:44:10;;;;;;;9.05;5.22;;;;;;;;;;5071293;28;20074;-60
2022/04/10 03:46:36;;;;;;;13.18;5.63;;;;;;;;;;5071021;28;20020;-60
2022/04/10 03:49:02;;;;;;;10.52;7.10;;;;;;;;;;5073589;28;20016;-60
2022/04/10 03:51:29;;;;;;;11.40;5.75;;;;;;;;;;5091646;28;20024;-60
2022/04/10 03:53:55;;;;;;;8.20;5.72;;;;;;;;;;5091312;28;20031;-61
2022/04/10 03:56:21;;;;;;;10.45;6.20;;;;;;;;;;5090684;28;20458;-61
2022/04/10 03:58:47;;;;;;;10.35;5.63;;;;;;;;;;5091284;28;20024;-60
2022/04/10 04:01:14;;;;;;;14.02;5.65;;;;;;;;;;5090734;28;20123;-60
2022/04/10 04:03:40;;;;;;;13.93;5.57;;;;;;;;;;5091292;28;20418;-60
2022/04/10 04:06:08;;;;;;;11.50;6.10;;;;;;;;;;5091333;28;20024;-60
2022/04/10 04:08:34;;;;;;;11.40;6.47;;;;;;;;;;5091512;28;20021;-60
2022/04/10 04:11:00;;;;;;;9.25;5.90;;;;;;;;;;5090892;28;20096;-60
2022/04/10 04:13:27;;;;;;;10.88;5.97;;;;;;;;;;5090090;28;20028;-60
2022/04/10 04:15:53;;;;;;;12.35;5.75;;;;;;;;;;5079351;28;20027;-60
2022/04/10 04:18:19;;;;;;;10.02;5.97;;;;;;;;;;5090559;28;20032;-60
2022/04/10 04:20:46;;;;;;;8.18;4.93;;;;;;;;;;5089924;28;20035;-61
2022/04/10 04:23:14;;;;;;;12.30;6.10;;;;;;;;;;5091075;28;20447;-60
2022/04/10 04:25:40;;;;;;;10.32;5.72;;;;;;;;;;5091036;28;20035;-60
2022/04/10 04:28:10;;;;;;;9.32;5.18;;;;;;;;;;5091082;28;20490;-60
2022/04/10 04:30:36;;;;;;;10.75;5.32;;;;;;;;;;5091662;28;20081;-60
2022/04/10 04:33:04;;;;;;;9.57;4.93;;;;;;;;;;5084446;28;20025;-61
2022/04/10 04:35:31;;;;;;;13.50;6.10;;;;;;;;;;5073805;28;20028;-60
2022/04/10 04:38:00;;;;;;;12.35;5.28;;;;;;;;;;5071043;28;20028;-60
2022/04/10 04:40:26;;;;;;;10.25;5.40;;;;;;;;;;5076088;28;20024;-60
2022/04/10 04:42:53;;;;;;;13.05;5.78;;;;;;;;;;5083603;28;20051;-60
2022/04/10 04:45:22;;;;;;;8.10;5.25;;;;;;;;;;5082036;28;20086;-61
2022/04/10 04:47:59;;;;;;;10.23;5.15;;;;;;;;;;5079806;28;20032;-60
2022/04/10 04:50:26;;;;;;;10.70;5.93;;;;;;;;;;5072931;28;20104;-61
2022/04/10 04:52:55;;;;;;;13.13;6.05;;;;;;;;;;5080237;28;20028;-60
2022/04/10 04:55:21;;;;;;;11.77;6.00;;;;;;;;;;5092106;28;20035;-60
2022/04/10 04:57:48;;;;;;;10.07;5.90;;;;;;;;;;5091956;28;20493;-61
2022/04/10 05:00:14;;;;;;;11.45;5.55;;;;;;;;;;5088967;28;20017;-60
2022/04/10 05:02:47;;;;;;;13.80;5.60;;;;;;;;;;5088218;28;20113;-60
2022/04/10 05:05:14;;;;;;;10.80;5.57;;;;;;;;;;5090212;28;20030;-60
2022/04/10 05:07:41;;;;;;;16.15;5.25;;;;;;;;;;5073624;28;20115;-61
2022/04/10 05:10:08;;;;;;;10.80;6.95;;;;;;;;;;5081338;28;20095;-61
2022/04/10 05:12:37;;;;;;;6.95;4.97;;;;;;;;;;5085143;28;20020;-61
2022/04/10 05:15:08;;;;;;;6.88;5.30;;;;;;;;;;5070095;28;20040;-61
2022/04/10 05:17:37;;;;;;;8.45;5.13;;;;;;;;;;5072311;28;20024;-60
2022/04/10 05:20:07;;;;;;;7.25;5.20;;;;;;;;;;5089218;28;20032;-60
2022/04/10 05:22:39;;;;;;;7.25;5.03;;;;;;;;;;5087851;28;20041;-61
2022/04/10 05:25:08;;;;;;;12.57;5.20;;;;;;;;;;5089575;28;20390;-61
2022/04/10 05:27:36;;;;;;;12.63;5.15;;;;;;;;;;5086136;28;20024;-60
2022/04/10 05:30:03;;;;;;;14.23;5.13;;;;;;;;;;5071576;28;20017;-61
2022/04/10 05:32:29;;;;;;;12.55;5.18;;;;;;;;;;5085318;28;20087;-60
2022/04/10 05:34:55;;;;;;;9.13;4.68;;;;;;;;;;5080411;28;20097;-61
2022/04/10 05:37:23;;;;;;;9.02;4.72;;;;;;;;;;5093986;28;20028;-61
2022/04/10 05:39:54;;;;;;;9.15;4.60;;;;;;;;;;5093830;28;20028;-61
2022/04/10 05:42:20;;;;;;;8.20;4.50;;;;;;;;;;5092356;28;20354;-60
2022/04/10 05:44:48;;;;;;;8.05;4.57;;;;;;;;;;5075437;28;20059;-61
2022/04/10 05:47:14;;;;;;;12.32;5.90;;;;;;;;;;5073309;28;20413;-60
2022/04/10 05:49:41;;;;;;;7.80;4.43;;;;;;;;;;5089595;28;20023;-61
2022/04/10 05:52:07;;;;;;;8.10;4.47;;;;;;;;;;5087488;28;20021;-61
2022/04/10 05:54:35;;;;;;;7.85;4.40;;;;;;;;;;5079912;28;20024;-60
2022/04/10 05:57:03;;;;;;;10.75;4.47;;;;;;;;;;5077241;28;20056;-61
2022/04/10 05:59:29;;;;;;;8.13;4.43;;;;;;;;;;5086663;28;20020;-61
2022/04/10 06:01:58;;;;;;;8.23;4.25;;;;;;;;;;5080952;28;20036;-61
2022/04/10 06:04:25;;;;;;;7.53;4.30;;;;;;;;;;5078280;28;20102;-60
2022/04/10 06:06:51;;;;;;;11.88;4.72;;;;;;;;;;5078428;28;20096;-61
2022/04/10 06:09:26;;;;;;;9.85;4.57;;;;;;;;;;5080899;28;20025;-61
2022/04/10 06:11:53;;;;;;;11.98;4.22;;;;;;;;;;5072450;28;20401;-61
2022/04/10 06:14:22;;;;;;;11.63;6.55;;;;;;;;;;5079572;28;20039;-61
2022/04/10 06:16:48;;;;;;;6.45;4.47;;;;;;;;;;5078582;28;20032;-60
2022/04/10 06:19:18;;;;;;;12.85;5.10;;;;;;;;;;5062050;28;20028;-60
2022/04/10 06:21:45;;;;;;;10.40;5.40;;;;;;;;;;5077135;28;20028;-61
2022/04/10 06:24:13;;;;;;;11.52;4.90;;;;;;;;;;5075717;28;20401;-61
2022/04/10 06:26:44;;;;;;;13.35;5.50;;;;;;;;;;5079650;28;20377;-62
2022/04/10 06:29:12;;;;;;;9.35;5.10;;;;;;;;;;5079628;28;20024;-62
2022/04/10 06:31:43;;;;;;;13.18;5.22;;;;;;;;;;5082455;28;20017;-62
2022/04/10 06:34:10;;;;;;;9.63;5.28;;;;;;;;;;5084555;28;20043;-62
2022/04/10 06:36:39;;;;;;;6.65;4.50;;;;;;;;;;5078801;28;20485;-67
2022/04/10 06:39:06;;;;;;;12.82;6.85;;;;;;;;;;5089379;28;20024;-66
2022/04/10 06:41:34;;;;;;;10.38;5.90;;;;;;;;;;5082208;28;20485;-67
2022/04/10 06:44:06;;;;;;;9.18;4.80;;;;;;;;;;5072061;28;20051;-67
2022/04/10 06:46:54;;;;;;;7.72;4.47;;;;;;;;;;5082257;28;20115;-67
2022/04/10 06:49:25;;;;;;;12.20;4.90;;;;;;;;;;5085300;28;20037;-67
2022/04/10 06:51:53;;;;;;;8.02;4.40;;;;;;;;;;5083764;28;20025;-67
2022/04/10 06:54:27;;;;;;;8.70;4.78;;;;;;;;;;5075174;28;20024;-67
2022/04/10 06:56:53;;;;;;;15.27;6.10;;;;;;;;;;5091370;28;20102;-67
2022/04/10 06:59:20;;;;;;;10.18;5.57;;;;;;;;;;5085449;28;20028;-67
2022/04/10 07:01:47;;;;;;;12.35;6.55;;;;;;;;;;5091228;28;20131;-67
2022/04/10 07:04:13;;;;;;;10.20;4.55;;;;;;;;;;5092090;28;20082;-67
2022/04/10 07:06:46;;;;;;;11.05;4.65;;;;;;;;;;5085238;28;20047;-67
2022/04/10 07:09:13;;;;;;;12.23;4.43;;;;;;;;;;5071670;28;20028;-67
2022/04/10 07:11:39;;;;;;;7.43;4.50;;;;;;;;;;5074535;28;20349;-67
2022/04/10 07:14:14;;;;;;;8.30;4.53;;;;;;;;;;5091809;28;20454;-67
2022/04/10 07:16:40;;;;;;;7.57;4.03;;;;;;;;;;5085290;28;20496;-67
2022/04/10 07:19:06;;;;;;;13.80;4.00;;;;;;;;;;5080126;28;20494;-67
2022/04/10 07:24:17;;;;;;;6.53;4.20;;;;;;;;;;5079981;28;20086;-68
2022/04/10 07:26:52;;;;;;;8.98;3.83;;;;;;;;;;5088515;28;20030;-67
2022/04/10 07:29:19;;;;;;;11.25;3.70;;;;;;;;;;5077718;28;20378;-67
2022/04/10 07:31:48;;;;;;;5.95;3.65;;;;;;;;;;5081063;28;20016;-67
2022/04/10 07:34:14;;;;;;;5.90;3.25;;;;;;;;;;5081988;28;20045;-67
2022/04/10 07:36:58;;;;;;;7.93;3.60;;;;;;;;;;5075223;28;20051;-67
2022/04/10 07:39:29;;;;;;;10.45;2.53;;;;;;;;;;5070565;28;20112;-67
2022/04/10 07:42:11;;;;;;;8.80;2.67;;;;;;;;;;5080859;28;20385;-67
2022/04/10 07:44:37;;;;;;;7.88;2.70;;;;;;;;;;5086466;28;20027;-67
2022/04/10 07:47:37;;;;;;;6.50;2.42;;;;;;;;;;5075651;28;20026;-67
2022/04/10 07:49:57;;;;;;;;;;;;;;;;;;5077702;28;20043;-67
2022/04/10 07:52:24;;;;;;;5.28;2.42;;;;;;;;;;5075596;28;19908;-67
2022/04/10 07:55:04;;;;;;;7.03;2.05;;;;;;;;;;5079878;28;20431;-67
2022/04/10 07:57:34;;;;;;;11.20;2.83;;;;;;;;;;5080762;28;20043;-67
2022/04/10 08:00:01;;;;;;;10.82;2.47;;;;;;;;;;5074266;28;20025;-67
2022/04/10 08:02:48;;;;;;;4.43;2.42;;;;;;;;;;5070349;28;20036;-67
2022/04/10 08:05:24;;;;;;;4.55;2.00;;;;;;;;;;5087117;28;20485;-67
2022/04/10 08:08:02;;;;;;;6.53;1.65;;;;;;;;;;5077812;28;20028;-70
2022/04/10 08:10:29;;;;;;;5.95;1.88;;;;;;;;;;5076467;28;20032;-67
2022/04/10 08:12:55;;;;;;;6.07;1.60;;;;;;;;;;5070779;28;20026;-66
2022/04/10 08:15:21;;;;;;;5.88;2.13;;;;;;;;;;5088500;28;20082;-67
2022/04/10 08:17:48;;;;;;;3.17;1.80;;;;;;;;;;5089948;28;20485;-67
2022/04/10 08:20:14;;;;;;;4.32;1.98;;;;;;;;;;5083083;28;20031;-67
2022/04/10 08:22:40;;;;;;;8.13;3.83;;;;;;;;;;5086299;28;20043;-67
2022/04/10 08:25:10;;;;;;;7.63;2.33;;;;;;;;;;5078615;28;20021;-66
2022/04/10 08:27:36;;;;;;;8.27;2.03;;;;;;;;;;5079430;28;20552;-66
2022/04/10 08:30:03;;;;;;;6.25;2.20;;;;;;;;;;5082063;28;20516;-66
2022/04/10 08:32:36;;;;;;;7.75;2.17;;;;;;;;;;5081197;28;20175;-67
2022/04/10 08:35:02;;;;;;;5.63;2.20;;;;;;;;;;5085045;28;20049;-66
2022/04/10 08:37:29;;;;;;;7.78;1.95;;;;;;;;;;5077261;28;20507;-66
2022/04/10 08:39:55;;;;;;;5.05;1.92;;;;;;;;;;5076681;28;20047;-66
2022/04/10 08:42:21;;;;;;;4.55;1.63;;;;;;;;;;5073887;28;20040;-66
2022/04/10 08:44:47;;;;;;;10.23;2.05;;;;;;;;;;5077041;28;20044;-66
2022/04/10 08:47:20;;;;;;;5.88;2.10;;;;;;;;;;5072858;28;20020;-67
2022/04/10 08:49:46;;;;;;;;;;;;;;;;;;5078670;28;20112;-67
2022/04/10 08:52:13;;;;;;;7.20;2.15;;;;;;;;;;5081147;28;19911;-71
2022/04/10 08:54:41;;;;;;;8.05;2.10;;;;;;;;;;5086412;28;20039;-67
2022/04/10 08:57:07;;;;;;;7.45;2.38;;;;;;;;;;5077750;28;20386;-67
2022/04/10 08:59:33;;;;;;;9.82;2.08;;;;;;;;;;5081926;28;20029;-67
2022/04/10 09:01:59;;;;;;;5.68;1.90;;;;;;;;;;5076354;28;20473;-67
2022/04/10 09:04:26;;;;;;;7.75;1.90;;;;;;;;;;5089783;28;20028;-67
2022/04/10 09:07:02;;;;;;;4.40;1.70;;;;;;;;;;5092823;28;20024;-67
2022/04/10 09:09:29;;;;;;;8.52;2.08;;;;;;;;;;5090427;28;20058;-67
2022/04/10 09:11:55;;;;;;;3.80;1.77;;;;;;;;;;5085330;28;20099;-67
2022/04/10 09:14:25;;;;;;;10.25;2.00;;;;;;;;;;5082202;28;20473;-67
2022/04/10 09:17:17;;;;;;;6.20;1.80;;;;;;;;;;5092249;28;20362;-67
2022/04/10 09:19:43;;;;;;;5.85;2.17;;;;;;;;;;5078465;28;20033;-67
2022/04/10 09:22:29;;;;;;;9.02;2.47;;;;;;;;;;5086423;28;20024;-67
2022/04/10 09:25:05;;;;;;;6.85;2.13;;;;;;;;;;5080401;28;20020;-67
2022/04/10 09:27:32;;;;;;;5.30;1.98;;;;;;;;;;5076385;28;20017;-67
2022/04/10 09:29:58;;;;;;;5.22;1.90;;;;;;;;;;5079604;28;20035;-67
2022/04/10 09:32:44;;;;;;;2.85;1.40;;;;;;;;;;5085471;28;20400;-67
2022/04/10 09:35:12;;;;;;;5.85;1.60;;;;;;;;;;5087648;28;20052;-67
2022/04/10 09:37:44;;;;;;;5.15;1.27;;;;;;;;;;5083652;28;20027;-67
2022/04/10 09:40:29;;;;;;;4.82;1.60;;;;;;;;;;5091592;28;20032;-67
2022/04/10 09:43:00;;;;;;;4.25;1.65;;;;;;;;;;5086481;28;20061;-67
2022/04/10 09:45:27;;;;;;;5.45;1.40;;;;;;;;;;5078801;28;20533;-67
2022/04/10 09:47:53;;;;;;;7.30;2.28;;;;;;;;;;5085785;28;20028;-67
2022/04/10 09:50:29;;;;;;;6.10;1.90;;;;;;;;;;5088583;28;20509;-67
2022/04/10 09:52:55;;;;;;;4.40;1.38;;;;;;;;;;5077823;28;20532;-67
2022/04/10 09:55:40;;;;;;;5.57;1.20;;;;;;;;;;5074355;28;20043;-67
2022/04/10 09:58:11;;;;;;;6.38;1.70;;;;;;;;;;5090236;28;20066;-67
2022/04/10 10:00:41;;;;;;;4.40;1.42;;;;;;;;;;5080352;28;20551;-67
2022/04/10 10:03:08;;;;;;;4.18;1.25;;;;;;;;;;5087816;28;20036;-67
2022/04/10 10:05:34;;;;;;;7.20;1.20;;;;;;;;;;5080509;28;20114;-67
2022/04/10 10:08:01;;;;;;;3.70;1.30;;;;;;;;;;5090119;28;20028;-67
2022/04/10 10:10:34;;;;;;;2.90;1.20;;;;;;;;;;5081229;28;20441;-67
2022/04/10 10:13:05;;;;;;;3.53;1.63;;;;;;;;;;5087829;28;20426;-67
2022/04/10 10:15:32;;;;;;;2.10;1.10;;;;;;;;;;5087410;28;20024;-67
2022/04/10 10:17:58;;;;;;;3.08;1.13;;;;;;;;;;5085112;28;20486;-67
2022/04/10 10:20:24;;;;;;;3.42;1.17;;;;;;;;;;5089800;28;20039;-67
2022/04/10 10:22:51;;;;;;;3.08;1.27;;;;;;;;;;5081282;28;20032;-67
2022/04/10 10:25:19;;;;;;;7.43;1.40;;;;;;;;;;5081113;28;20032;-67
2022/04/10 10:27:58;;;;;;;5.65;1.48;;;;;;;;;;5078911;28;20036;-67
2022/04/10 10:30:24;;;;;;;5.30;1.38;;;;;;;;;;5073314;28;20032;-67
2022/04/10 10:32:58;;;;;;;5.03;1.50;;;;;;;;;;5074261;28;20099;-67
2022/04/10 10:35:29;;;;;;;3.60;1.42;;;;;;;;;;5075517;28;20135;-67
2022/04/10 10:37:55;;;;;;;2.67;1.10;;;;;;;;;;5074263;28;20032;-67
2022/04/10 10:40:22;;;;;;;5.05;1.58;;;;;;;;;;5076203;28;20122;-67
2022/04/10 10:42:49;;;;;;;5.13;1.20;;;;;;;;;;5073051;28;20112;-67
2022/04/10 10:45:32;;;;;;;2.55;1.23;;;;;;;;;;5071921;28;20067;-67
2022/04/10 10:48:25;;;;;;;3.03;1.25;;;;;;;;;;5076749;28;20070;-67
2022/04/10 10:50:51;;;;;;;4.50;1.35;;;;;;;;;;5074504;28;20123;-67
2022/04/10 10:53:23;;;;;;;4.80;1.25;;;;;;;;;;5072093;28;20036;-67
2022/04/10 10:55:52;;;;;;;4.15;1.17;;;;;;;;;;5071534;28;20451;-67
2022/04/10 10:58:31;;;;;;;4.63;1.33;;;;;;;;;;5070532;28;20525;-67
2022/04/10 11:01:04;;;;;;;4.22;1.38;;;;;;;;;;5088274;28;20055;-67
2022/04/10 11:03:30;;;;;;;;;;;;;;;;;;5091234;28;20024;-67
2022/04/10 11:06:06;;;;;;;2.55;1.17;;;;;;;;;;5093751;28;21003;-67
2022/04/10 11:08:39;;;;;;;4.32;1.65;;;;;;;;;;5080594;28;20028;-67
2022/04/10 11:11:07;;;;;;;5.57;1.20;;;;;;;;;;5087848;28;20057;-67
2022/04/10 11:13:42;;;;;;;7.07;1.40;;;;;;;;;;5081997;28;20471;-67
2022/04/10 11:16:10;;;;;;;5.93;1.38;;;;;;;;;;5080194;28;20028;-67
2022/04/10 11:18:41;;;;;;;2.78;1.13;;;;;;;;;;5077111;28;20385;-66
2022/04/10 11:21:15;;;;;;;3.00;1.58;;;;;;;;;;5073353;28;20040;-66
2022/04/10 11:23:45;;;;;;;10.80;1.52;;;;;;;;;;5090280;28;20043;-66
2022/04/10 11:26:21;;;;;;;5.68;1.63;;;;;;;;;;5084326;28;20024;-69
2022/04/10 11:28:56;;;;;;;3.35;1.65;;;;;;;;;;5091652;28;20111;-66
2022/04/10 11:31:28;;;;;;;3.03;1.33;;;;;;;;;;5074612;28;20041;-65
2022/04/10 11:33:56;;;;;;;3.95;1.77;;;;;;;;;;5079869;28;20062;-66
2022/04/10 11:36:22;;;;;;;9.52;1.67;;;;;;;;;;5081392;28;20028;-66
2022/04/10 11:39:07;;;;;;;3.15;1.23;;;;;;;;;;5080962;28;20370;-66
2022/04/10 11:41:33;;;;;;;6.43;1.30;;;;;;;;;;5081386;28;20413;-66
2022/04/10 11:44:00;;;;;;;4.60;1.63;;;;;;;;;;5083207;28;20034;-66
2022/04/10 11:46:29;;;;;;;3.53;1.38;;;;;;;;;;5086921;28;20035;-66
2022/04/10 11:48:55;;;;;;;6.00;1.25;;;;;;;;;;5079750;28;20078;-66
2022/04/10 11:51:22;;;;;;;5.97;1.50;;;;;;;;;;5075608;28;20116;-66
2022/04/10 11:53:55;;;;;;;1.83;0.95;;;;;;;;;;5083436;28;20367;-66
2022/04/10 11:56:22;;;;;;;5.25;1.52;;;;;;;;;;5079614;28;20089;-66
2022/04/10 11:58:48;;;;;;;7.32;1.50;;;;;;;;;;5079465;28;20042;-67
2022/04/10 12:01:14;;;;;;;4.03;1.10;;;;;;;;;;5084806;28;20032;-66
2022/04/10 12:03:41;;;;;;;4.90;1.50;;;;;;;;;;5082367;28;20520;-66
2022/04/10 12:06:09;;;;;;;6.45;1.60;;;;;;;;;;5083012;28;20052;-66
2022/04/10 12:08:35;;;;;;;4.28;1.48;;;;;;;;;;5084866;28;20016;-66
2022/04/10 12:11:03;;;;;;;5.90;1.52;;;;;;;;;;5082913;28;20024;-66
2022/04/10 12:13:30;;;;;;;3.85;1.42;;;;;;;;;;5084881;28;20028;-66
2022/04/10 12:16:03;;;;;;;4.57;1.70;;;;;;;;;;5079883;28;20024;-66
2022/04/10 12:18:29;;;;;;;;;;;;;;;;;;5085318;28;20079;-66
2022/04/10 12:21:01;;;;;;;4.63;1.40;;;;;;;;;;5091061;28;19916;-66
2022/04/10 12:23:28;;;;;;;4.65;1.48;;;;;;;;;;5079778;28;20012;-66
2022/04/10 12:25:55;;;;;;;10.02;1.65;;;;;;;;;;5071292;28;20028;-66
2022/04/10 12:28:22;;;;;;;5.00;1.55;;;;;;;;;;5087566;28;20055;-66
2022/04/10 12:30:48;;;;;;;3.72;1.50;;;;;;;;;;5088615;28;20101;-66
2022/04/10 12:33:15;;;;;;;3.25;1.25;;;;;;;;;;5091118;28;20021;-66
2022/04/10 12:35:43;;;;;;;3.80;1.38;;;;;;;;;;5080323;28;20028;-66
2022/04/10 12:38:11;;;;;;;2.97;1.35;;;;;;;;;;5072711;28;20433;-66
2022/04/10 12:40:37;;;;;;;7.47;2.00;;;;;;;;;;5073019;28;20051;-66
2022/04/10 12:43:04;;;;;;;2.97;1.30;;;;;;;;;;5095434;28;20024;-66
2022/04/10 12:45:31;;;;;;;6.78;1.50;;;;;;;;;;5078295;28;20025;-66
2022/04/10 12:47:58;;;;;;;3.83;1.17;;;;;;;;;;5075175;28;20028;-66
2022/04/10 12:50:25;;;;;;;6.75;1.23;;;;;;;;;;5075137;28;20021;-66
2022/04/10 12:52:52;;;;;;;2.83;1.20;;;;;;;;;;5079700;28;20020;-66
2022/04/10 12:55:25;;;;;;;4.88;1.20;;;;;;;;;;5076338;28;20033;-66
2022/04/10 12:57:52;;;;;;;3.38;0.95;;;;;;;;;;5073025;28;20024;-66
2022/04/10 13:00:28;;;;;;;7.07;1.60;;;;;;;;;;5073835;28;20024;-66
2022/04/10 13:02:55;;;;;;;3.35;1.20;;;;;;;;;;5079092;28;20496;-66
2022/04/10 13:05:21;;;;;;;2.70;1.20;;;;;;;;;;5077674;28;20408;-66
2022/04/10 13:07:58;;;;;;;5.22;1.10;;;;;;;;;;5074245;28;20085;-66
2022/04/10 13:10:25;;;;;;;5.30;1.40;;;;;;;;;;5075511;28;20043;-66
2022/04/10 13:13:03;;;;;;;2.53;0.95;;;;;;;;;;5077184;28;20031;-66
2022/04/10 13:15:30;;;;;;;4.70;2.00;;;;;;;;;;5073435;28;20123;-66
2022/04/10 13:17:57;;;;;;;5.50;1.15;;;;;;;;;;5076644;28;20025;-66
2022/04/10 13:20:26;;;;;;;2.25;1.25;;;;;;;;;;5080809;28;20508;-66
2022/04/10 13:22:53;;;;;;;4.60;1.27;;;;;;;;;;5089231;28;20182;-66
2022/04/10 13:25:19;;;;;;;1.48;1.00;;;;;;;;;;5075309;28;20094;-67
2022/04/10 13:27:45;;;;;;;7.05;1.42;;;;;;;;;;5092814;28;20034;-67
2022/04/10 13:30:12;;;;;;;7.20;1.23;;;;;;;;;;5080656;28;20425;-66
2022/04/10 13:32:38;;;;;;;2.28;1.15;;;;;;;;;;5075184;28;20667;-66
2022/04/10 13:35:05;;;;;;;6.43;0.98;;;;;;;;;;5084939;28;20036;-66
2022/04/10 13:37:31;;;;;;;3.00;1.83;;;;;;;;;;5074574;28;20174;-66
2022/04/10 13:39:57;;;;;;;2.17;1.30;;;;;;;;;;5075112;28;20024;-66
2022/04/10 13:42:23;;;;;;;5.13;1.58;;;;;;;;;;5074362;28;20025;-72
2022/04/10 13:44:51;;;;;;;6.65;1.50;;;;;;;;;;5081456;28;20039;-74
2022/04/10 13:47:17;;;;;;;3.58;1.27;;;;;;;;;;5075842;28;20023;-74
2022/04/10 13:49:44;;;;;;;5.68;1.17;;;;;;;;;;5072190;28;20028;-73
2022/04/10 13:52:10;;;;;;;3.65;1.50;;;;;;;;;;5078266;28;20440;-68
2022/04/10 13:54:37;;;;;;;4.18;1.15;;;;;;;;;;5091065;28;20490;-73
2022/04/10 13:57:03;;;;;;;5.28;1.75;;;;;;;;;;5093934;28;20032;-76
2022/04/10 13:59:29;;;;;;;5.15;1.45;;;;;;;;;;5080189;28;20517;-69
2022/04/10 14:01:55;;;;;;;2.67;1.25;;;;;;;;;;5081767;28;20031;-73
2022/04/10 14:04:21;;;;;;;2.72;0.90;;;;;;;;;;5089434;28;20086;-72
2022/04/10 14:06:47;;;;;;;4.68;1.27;;;;;;;;;;5087124;28;20028;-68
2022/04/10 14:09:13;;;;;;;2.35;1.52;;;;;;;;;;5076962;28;20536;-68
2022/04/10 14:11:41;;;;;;;2.50;1.30;;;;;;;;;;5073030;28;20094;-69
2022/04/10 14:14:07;;;;;;;2.97;1.15;;;;;;;;;;5073721;28;20039;-76
2022/04/10 14:16:33;;;;;;;3.00;1.40;;;;;;;;;;5073671;28;20504;-68
2022/04/10 14:19:00;;;;;;;4.28;1.52;;;;;;;;;;5073330;28;20032;-72
2022/04/10 14:21:26;;;;;;;4.32;1.58;;;;;;;;;;5088041;28;20107;-70
2022/04/10 14:23:52;;;;;;;5.88;1.30;;;;;;;;;;5082147;28;20509;-72
2022/04/10 14:26:18;;;;;;;4.18;2.58;;;;;;;;;;5072878;28;20074;-70
2022/04/10 14:28:44;;;;;;;5.68;1.30;;;;;;;;;;5074057;28;20028;-73
2022/04/10 14:31:10;;;;;;;2.53;1.17;;;;;;;;;;5081070;28;20084;-72
2022/04/10 14:33:36;;;;;;;3.35;1.48;;;;;;;;;;5080011;28;20118;-70
2022/04/10 14:36:03;;;;;;;8.13;1.58;;;;;;;;;;5075894;28;20029;-66
2022/04/10 14:38:29;;;;;;;3.05;1.77;;;;;;;;;;5079140;28;20024;-72
2022/04/10 14:40:55;;;;;;;5.03;1.40;;;;;;;;;;5077916;28;20037;-67
2022/04/10 14:43:22;;;;;;;8.95;1.60;;;;;;;;;;5085415;28;20028;-63
2022/04/10 14:45:48;;;;;;;4.15;1.50;;;;;;;;;;5089051;28;20036;-63
2022/04/10 14:48:14;;;;;;;5.97;2.53;;;;;;;;;;5087304;28;20051;-63
2022/04/10 14:50:40;;;;;;;3.22;2.15;;;;;;;;;;5072697;28;20024;-63